Heath, Montana
Current Conditions -  °F | °C
As of 8:54 AM on Friday 24 Oct 2014 (Local Time) from KLWT Reporting Station
Overcast Overcast  
Wind Chill: 50°   Ceiling: 6500
Heat Index: 50°   Visibility: 10mi
Dew Point: 36°   Wind: 12mph
Humidity: 59%   Direction: 280°W
Pressure: 30.04"   Gusts: NA
Location:  46.9245°N, 109.389°W
Report Text: KLWT 241454Z AUTO 28010KT 10SM OVC065 10/02 A3004 RMK AO2 SLP162 T01000022 51022
Loading
Personal Weather Stations






























Interactive Weather Map
Tropical Storm Tracking
New forecast layout! Learn more

10-Day Weather Forecast

Advertisements
Track Severe Weather on mobile